Terminal Aerodrome Forecast
Issued by NWS

Home | Current Version | Previous Version | Text Only | Print | Product List | Glossary On
Versions: 1 2 3 4 5 6 7 8 9 10 11 12 13 14 15 16 17 18 19 20 21 22 23 24 25 26 27 28 29 30 31 32 33 34 35
895
FTUS45 KBOU 221139
TAFBJC
TAF
KBJC 221139Z 2212/2312 VRB04KT P6SM -RA BKN015 OVC035
      TEMPO 2212/2216 5SM -RA BKN009
     FM221700 08007KT P6SM VCSH SCT040 BKN070
     FM221900 09007KT P6SM SCT040 SCT090
     FM222100 08008KT P6SM VCSH SCT040 BKN070
      TEMPO 2221/2301 4SM -TSRA BKN030CB
     FM230100 03008KT P6SM VCTS SCT030CB OVC050 PROB30 2302/2306 4SM
      -SHRA SCT008 BKN020
     FM230700 11005KT 5SM BR BKN012 OVC025
     FM231000 VRB04KT 1SM BR BKN009 OVC015
      TEMPO 2310/2312 1/2SM FG VV003=

USA.gov is the U.S. government's official web portal to all federal, state and local government web resources and services.